sensor_id;sensor_type;location;lat;lon;timestamp;temperature;humidity
1025;DHT22;501;48.214;11.350;2023-02-28T00:00:33;-0.90;34.70
1025;DHT22;501;48.214;11.350;2023-02-28T00:02:59;-0.90;34.90
1025;DHT22;501;48.214;11.350;2023-02-28T00:05:26;-0.90;34.60
1025;DHT22;501;48.214;11.350;2023-02-28T00:07:52;-0.90;34.90
1025;DHT22;501;48.214;11.350;2023-02-28T00:10:23;-1.00;34.70
1025;DHT22;501;48.214;11.350;2023-02-28T00:12:53;-0.90;34.70
1025;DHT22;501;48.214;11.350;2023-02-28T00:15:19;-0.90;35.00
1025;DHT22;501;48.214;11.350;2023-02-28T00:17:45;-0.90;34.80
1025;DHT22;501;48.214;11.350;2023-02-28T00:20:12;-1.00;34.80
1025;DHT22;501;48.214;11.350;2023-02-28T00:22:43;-1.00;34.90
1025;DHT22;501;48.214;11.350;2023-02-28T00:25:11;-1.00;35.00
1025;DHT22;501;48.214;11.350;2023-02-28T00:27:38;-1.00;35.10
1025;DHT22;501;48.214;11.350;2023-02-28T00:30:08;-1.10;35.10
1025;DHT22;501;48.214;11.350;2023-02-28T00:32:34;-1.10;35.00
1025;DHT22;501;48.214;11.350;2023-02-28T00:35:00;-1.10;35.30
1025;DHT22;501;48.214;11.350;2023-02-28T00:37:27;-1.20;35.30
1025;DHT22;501;48.214;11.350;2023-02-28T00:39:53;-1.20;35.20
1025;DHT22;501;48.214;11.350;2023-02-28T00:42:18;-1.20;35.20
1025;DHT22;501;48.214;11.350;2023-02-28T00:44:44;-1.20;35.40
1025;DHT22;501;48.214;11.350;2023-02-28T00:47:09;-1.30;35.80
1025;DHT22;501;48.214;11.350;2023-02-28T00:49:35;-1.30;36.30
1025;DHT22;501;48.214;11.350;2023-02-28T00:52:01;-1.30;36.20
1025;DHT22;501;48.214;11.350;2023-02-28T00:54:27;-1.30;36.00
1025;DHT22;501;48.214;11.350;2023-02-28T00:56:52;-1.30;35.90
1025;DHT22;501;48.214;11.350;2023-02-28T00:59:18;-1.30;36.00
1025;DHT22;501;48.214;11.350;2023-02-28T01:01:45;-1.40;36.40
1025;DHT22;501;48.214;11.350;2023-02-28T01:04:12;-1.50;36.60
1025;DHT22;501;48.214;11.350;2023-02-28T01:06:37;-1.50;37.80
1025;DHT22;501;48.214;11.350;2023-02-28T01:09:05;-1.50;37.30
1025;DHT22;501;48.214;11.350;2023-02-28T01:11:31;-1.50;36.90
1025;DHT22;501;48.214;11.350;2023-02-28T01:13:58;-1.50;36.90
1025;DHT22;501;48.214;11.350;2023-02-28T01:16:23;-1.50;37.10
1025;DHT22;501;48.214;11.350;2023-02-28T01:18:49;-1.50;37.20
1025;DHT22;501;48.214;11.350;2023-02-28T01:21:17;-1.50;37.10
1025;DHT22;501;48.214;11.350;2023-02-28T01:23:43;-1.60;37.00
1025;DHT22;501;48.214;11.350;2023-02-28T01:26:18;-1.60;37.10
1025;DHT22;501;48.214;11.350;2023-02-28T01:28:44;-1.60;37.20
1025;DHT22;501;48.214;11.350;2023-02-28T01:31:10;-1.60;37.10
1025;DHT22;501;48.214;11.350;2023-02-28T01:33:37;-1.70;37.50
1025;DHT22;501;48.214;11.350;2023-02-28T01:36:09;-1.70;37.50
1025;DHT22;501;48.214;11.350;2023-02-28T01:38:36;-1.70;37.50
1025;DHT22;501;48.214;11.350;2023-02-28T01:41:02;-1.70;37.70
1025;DHT22;501;48.214;11.350;2023-02-28T01:43:31;-1.70;38.10
1025;DHT22;501;48.214;11.350;2023-02-28T01:45:58;-1.70;37.90
1025;DHT22;501;48.214;11.350;2023-02-28T01:48:38;-1.70;37.90
1025;DHT22;501;48.214;11.350;2023-02-28T01:51:08;-1.80;38.10
1025;DHT22;501;48.214;11.350;2023-02-28T01:53:50;-1.80;38.20
1025;DHT22;501;48.214;11.350;2023-02-28T01:56:20;-1.80;38.30
1025;DHT22;501;48.214;11.350;2023-02-28T01:58:49;-1.90;38.90
1025;DHT22;501;48.214;11.350;2023-02-28T02:01:15;-1.90;38.60
1025;DHT22;501;48.214;11.350;2023-02-28T02:03:48;-1.90;38.80
1025;DHT22;501;48.214;11.350;2023-02-28T02:06:21;-1.90;38.80
1025;DHT22;501;48.214;11.350;2023-02-28T02:08:47;-1.90;38.80
1025;DHT22;501;48.214;11.350;2023-02-28T02:11:14;-1.90;39.10
1025;DHT22;501;48.214;11.350;2023-02-28T02:25:18;-2.00;39.50
1025;DHT22;501;48.214;11.350;2023-02-28T02:27:48;-2.00;39.80
1025;DHT22;501;48.214;11.350;2023-02-28T02:33:10;-2.00;39.80
1025;DHT22;501;48.214;11.350;2023-02-28T02:35:55;-2.00;39.80
1025;DHT22;501;48.214;11.350;2023-02-28T02:38:52;-2.10;39.70
1025;DHT22;501;48.214;11.350;2023-02-28T02:41:49;-2.10;39.70
1025;DHT22;501;48.214;11.350;2023-02-28T02:44:33;-2.10;39.70
1025;DHT22;501;48.214;11.350;2023-02-28T02:47:07;-2.10;39.70
1025;DHT22;501;48.214;11.350;2023-02-28T02:49:36;-2.10;39.70
1025;DHT22;501;48.214;11.350;2023-02-28T02:52:06;-2.10;39.70
1025;DHT22;501;48.214;11.350;2023-02-28T02:54:35;-2.10;39.90
1025;DHT22;501;48.214;11.350;2023-02-28T02:57:09;-2.10;39.70
1025;DHT22;501;48.214;11.350;2023-02-28T02:59:37;-2.10;39.70
1025;DHT22;501;48.214;11.350;2023-02-28T03:02:06;-2.10;39.70
1025;DHT22;501;48.214;11.350;2023-02-28T03:04:36;-2.10;39.70
1025;DHT22;501;48.214;11.350;2023-02-28T03:07:03;-2.10;39.70
1025;DHT22;501;48.214;11.350;2023-02-28T03:09:29;-2.10;39.90
1025;DHT22;501;48.214;11.350;2023-02-28T03:11:58;-2.10;39.90
1025;DHT22;501;48.214;11.350;2023-02-28T03:15:01;-2.10;40.10
1025;DHT22;501;48.214;11.350;2023-02-28T03:22:51;-2.20;40.50
1025;DHT22;501;48.214;11.350;2023-02-28T03:33:47;-2.20;41.50
1025;DHT22;501;48.214;11.350;2023-02-28T03:36:23;-2.20;41.60
1025;DHT22;501;48.214;11.350;2023-02-28T03:39:06;-2.20;41.90
1025;DHT22;501;48.214;11.350;2023-02-28T03:41:37;-2.20;42.30
1025;DHT22;501;48.214;11.350;2023-02-28T03:44:09;-2.20;42.30
1025;DHT22;501;48.214;11.350;2023-02-28T03:46:48;-2.20;42.60
1025;DHT22;501;48.214;11.350;2023-02-28T03:49:22;-2.20;42.90
1025;DHT22;501;48.214;11.350;2023-02-28T03:51:50;-2.10;43.00
1025;DHT22;501;48.214;11.350;2023-02-28T03:54:24;-2.10;42.90
1025;DHT22;501;48.214;11.350;2023-02-28T03:57:02;-2.10;43.20
1025;DHT22;501;48.214;11.350;2023-02-28T03:59:37;-2.10;43.20
1025;DHT22;501;48.214;11.350;2023-02-28T04:02:03;-2.00;43.40
1025;DHT22;501;48.214;11.350;2023-02-28T04:04:29;-2.00;43.60
1025;DHT22;501;48.214;11.350;2023-02-28T04:07:03;-2.10;43.90
1025;DHT22;501;48.214;11.350;2023-02-28T04:09:28;-2.10;43.70
1025;DHT22;501;48.214;11.350;2023-02-28T04:11:54;-2.00;43.90
1025;DHT22;501;48.214;11.350;2023-02-28T04:14:23;-2.00;44.20
1025;DHT22;501;48.214;11.350;2023-02-28T04:16:48;-2.00;44.00
1025;DHT22;501;48.214;11.350;2023-02-28T04:19:16;-2.00;43.70
1025;DHT22;501;48.214;11.350;2023-02-28T04:21:44;-1.90;43.70
1025;DHT22;501;48.214;11.350;2023-02-28T04:24:14;-1.90;43.50
1025;DHT22;501;48.214;11.350;2023-02-28T04:26:43;-1.90;43.50
1025;DHT22;501;48.214;11.350;2023-02-28T04:29:11;-1.90;43.40
1025;DHT22;501;48.214;11.350;2023-02-28T04:31:37;-1.80;43.50
1025;DHT22;501;48.214;11.350;2023-02-28T04:34:03;-1.80;44.10
1025;DHT22;501;48.214;11.350;2023-02-28T04:36:29;-1.80;43.60
1025;DHT22;501;48.214;11.350;2023-02-28T04:38:55;-1.80;43.40
1025;DHT22;501;48.214;11.350;2023-02-28T04:41:21;-1.80;44.20
1025;DHT22;501;48.214;11.350;2023-02-28T04:43:48;-1.70;43.40
1025;DHT22;501;48.214;11.350;2023-02-28T04:46:13;-1.70;43.30
1025;DHT22;501;48.214;11.350;2023-02-28T04:48:39;-1.70;43.20
1025;DHT22;501;48.214;11.350;2023-02-28T04:51:13;-1.70;43.00
1025;DHT22;501;48.214;11.350;2023-02-28T04:53:40;-1.60;43.30
1025;DHT22;501;48.214;11.350;2023-02-28T04:56:07;-1.60;43.40
1025;DHT22;501;48.214;11.350;2023-02-28T04:58:34;-1.60;43.20
1025;DHT22;501;48.214;11.350;2023-02-28T05:01:14;-1.50;42.90
1025;DHT22;501;48.214;11.350;2023-02-28T05:03:41;-1.50;42.40
1025;DHT22;501;48.214;11.350;2023-02-28T05:06:11;-1.50;42.50
1025;DHT22;501;48.214;11.350;2023-02-28T05:08:37;-1.40;42.20
1025;DHT22;501;48.214;11.350;2023-02-28T05:11:03;-1.40;42.30
1025;DHT22;501;48.214;11.350;2023-02-28T05:13:29;-1.40;42.50
1025;DHT22;501;48.214;11.350;2023-02-28T05:15:55;-1.40;42.50
1025;DHT22;501;48.214;11.350;2023-02-28T05:18:21;-1.30;42.80
1025;DHT22;501;48.214;11.350;2023-02-28T05:20:46;-1.30;41.80
1025;DHT22;501;48.214;11.350;2023-02-28T05:23:13;-1.30;41.90
1025;DHT22;501;48.214;11.350;2023-02-28T05:25:39;-1.40;41.80
1025;DHT22;501;48.214;11.350;2023-02-28T05:28:06;-1.30;42.20
1025;DHT22;501;48.214;11.350;2023-02-28T05:30:32;-1.30;42.00
1025;DHT22;501;48.214;11.350;2023-02-28T05:32:59;-1.30;42.30
1025;DHT22;501;48.214;11.350;2023-02-28T05:35:25;-1.40;42.00
1025;DHT22;501;48.214;11.350;2023-02-28T05:37:51;-1.40;42.10
1025;DHT22;501;48.214;11.350;2023-02-28T05:40:17;-1.40;42.20
1025;DHT22;501;48.214;11.350;2023-02-28T05:42:45;-1.40;42.40
1025;DHT22;501;48.214;11.350;2023-02-28T05:45:11;-1.40;42.60
1025;DHT22;501;48.214;11.350;2023-02-28T05:47:37;-1.30;42.40
1025;DHT22;501;48.214;11.350;2023-02-28T05:50:03;-1.40;42.10
1025;DHT22;501;48.214;11.350;2023-02-28T05:52:30;-1.40;42.10
1025;DHT22;501;48.214;11.350;2023-02-28T05:54:56;-1.40;41.70
1025;DHT22;501;48.214;11.350;2023-02-28T05:57:22;-1.40;41.90
1025;DHT22;501;48.214;11.350;2023-02-28T05:59:48;-1.40;41.30
1025;DHT22;501;48.214;11.350;2023-02-28T06:02:15;-1.40;41.50
1025;DHT22;501;48.214;11.350;2023-02-28T06:04:41;-1.40;41.80
1025;DHT22;501;48.214;11.350;2023-02-28T06:07:08;-1.40;41.90
1025;DHT22;501;48.214;11.350;2023-02-28T06:09:33;-1.40;41.80
1025;DHT22;501;48.214;11.350;2023-02-28T06:12:01;-1.40;41.80
1025;DHT22;501;48.214;11.350;2023-02-28T06:14:29;-1.30;41.40
1025;DHT22;501;48.214;11.350;2023-02-28T06:16:56;-1.40;41.40
1025;DHT22;501;48.214;11.350;2023-02-28T06:19:22;-1.40;41.90
1025;DHT22;501;48.214;11.350;2023-02-28T06:21:51;-1.40;41.30
1025;DHT22;501;48.214;11.350;2023-02-28T06:24:21;-1.30;41.70
1025;DHT22;501;48.214;11.350;2023-02-28T06:26:47;-1.40;41.80
1025;DHT22;501;48.214;11.350;2023-02-28T06:29:13;-1.30;42.10
1025;DHT22;501;48.214;11.350;2023-02-28T06:31:43;-1.30;41.50
1025;DHT22;501;48.214;11.350;2023-02-28T06:34:09;-1.40;41.40
1025;DHT22;501;48.214;11.350;2023-02-28T06:36:37;-1.30;42.00
1025;DHT22;501;48.214;11.350;2023-02-28T06:39:03;-1.40;41.50
1025;DHT22;501;48.214;11.350;2023-02-28T06:41:29;-1.40;41.50
1025;DHT22;501;48.214;11.350;2023-02-28T06:43:55;-1.40;41.50
1025;DHT22;501;48.214;11.350;2023-02-28T06:46:21;-1.30;41.40
1025;DHT22;501;48.214;11.350;2023-02-28T06:48:46;-1.40;40.80
1025;DHT22;501;48.214;11.350;2023-02-28T06:51:17;-1.40;41.30
1025;DHT22;501;48.214;11.350;2023-02-28T06:53:46;-1.30;41.10
1025;DHT22;501;48.214;11.350;2023-02-28T06:56:13;-1.20;40.80
1025;DHT22;501;48.214;11.350;2023-02-28T06:58:39;-1.20;41.30
1025;DHT22;501;48.214;11.350;2023-02-28T07:01:06;-1.10;41.30
1025;DHT22;501;48.214;11.350;2023-02-28T07:03:32;-1.10;40.70
1025;DHT22;501;48.214;11.350;2023-02-28T07:05:58;-1.10;40.60
1025;DHT22;501;48.214;11.350;2023-02-28T07:08:24;-1.10;40.60
1025;DHT22;501;48.214;11.350;2023-02-28T07:10:54;-1.10;40.60
1025;DHT22;501;48.214;11.350;2023-02-28T07:13:20;-1.10;40.60
1025;DHT22;501;48.214;11.350;2023-02-28T07:16:08;-1.10;40.60
1025;DHT22;501;48.214;11.350;2023-02-28T07:18:35;-1.10;40.60
1025;DHT22;501;48.214;11.350;2023-02-28T07:21:04;-1.10;40.50
1025;DHT22;501;48.214;11.350;2023-02-28T07:23:30;-1.10;40.60
1025;DHT22;501;48.214;11.350;2023-02-28T07:25:56;-1.10;40.60
1025;DHT22;501;48.214;11.350;2023-02-28T07:28:22;-1.10;40.60
1025;DHT22;501;48.214;11.350;2023-02-28T07:30:48;-1.20;40.50
1025;DHT22;501;48.214;11.350;2023-02-28T07:33:13;-1.10;40.60
1025;DHT22;501;48.214;11.350;2023-02-28T07:35:39;-1.10;40.60
1025;DHT22;501;48.214;11.350;2023-02-28T07:38:05;-1.10;40.60
1025;DHT22;501;48.214;11.350;2023-02-28T07:40:33;-1.00;40.70
1025;DHT22;501;48.214;11.350;2023-02-28T07:43:00;-1.00;40.70
1025;DHT22;501;48.214;11.350;2023-02-28T07:45:26;-1.00;40.40
1025;DHT22;501;48.214;11.350;2023-02-28T07:47:54;-1.00;40.70
1025;DHT22;501;48.214;11.350;2023-02-28T07:50:20;-1.00;40.70
1025;DHT22;501;48.214;11.350;2023-02-28T07:52:45;-1.00;40.40
1025;DHT22;501;48.214;11.350;2023-02-28T07:55:11;-1.00;39.80
1025;DHT22;501;48.214;11.350;2023-02-28T07:57:36;-1.00;40.20
1025;DHT22;501;48.214;11.350;2023-02-28T08:00:04;-1.00;40.20
1025;DHT22;501;48.214;11.350;2023-02-28T08:02:30;-0.90;40.40
1025;DHT22;501;48.214;11.350;2023-02-28T08:04:55;-0.80;40.80
1025;DHT22;501;48.214;11.350;2023-02-28T08:07:22;-0.70;40.30
1025;DHT22;501;48.214;11.350;2023-02-28T08:09:48;-0.70;39.70
1025;DHT22;501;48.214;11.350;2023-02-28T08:12:14;-0.70;39.70
1025;DHT22;501;48.214;11.350;2023-02-28T08:14:40;-0.70;39.90
1025;DHT22;501;48.214;11.350;2023-02-28T08:17:06;-0.70;39.30
1025;DHT22;501;48.214;11.350;2023-02-28T08:19:32;-0.70;39.60
1025;DHT22;501;48.214;11.350;2023-02-28T08:21:57;-0.70;39.40
1025;DHT22;501;48.214;11.350;2023-02-28T08:24:24;-0.80;39.10
1025;DHT22;501;48.214;11.350;2023-02-28T08:26:49;-0.80;39.20
1025;DHT22;501;48.214;11.350;2023-02-28T08:29:15;-0.80;39.70
1025;DHT22;501;48.214;11.350;2023-02-28T08:31:41;-0.80;39.50
1025;DHT22;501;48.214;11.350;2023-02-28T08:34:12;-0.70;39.60
1025;DHT22;501;48.214;11.350;2023-02-28T08:36:39;-0.60;39.30
1025;DHT22;501;48.214;11.350;2023-02-28T08:39:05;-0.60;38.80
1025;DHT22;501;48.214;11.350;2023-02-28T08:41:32;-0.50;38.90
1025;DHT22;501;48.214;11.350;2023-02-28T08:43:57;-0.50;38.30
1025;DHT22;501;48.214;11.350;2023-02-28T08:46:23;-0.50;38.50
1025;DHT22;501;48.214;11.350;2023-02-28T08:48:52;-0.50;38.00
1025;DHT22;501;48.214;11.350;2023-02-28T08:51:20;-0.50;38.40
1025;DHT22;501;48.214;11.350;2023-02-28T08:53:55;-0.40;38.70
1025;DHT22;501;48.214;11.350;2023-02-28T08:56:21;-0.40;38.10
1025;DHT22;501;48.214;11.350;2023-02-28T08:58:48;-0.30;37.50
1025;DHT22;501;48.214;11.350;2023-02-28T09:01:16;-0.30;37.80
1025;DHT22;501;48.214;11.350;2023-02-28T09:03:43;-0.20;38.00
1025;DHT22;501;48.214;11.350;2023-02-28T09:06:10;-0.10;37.60
1025;DHT22;501;48.214;11.350;2023-02-28T09:08:37;0.00;37.10
1025;DHT22;501;48.214;11.350;2023-02-28T09:11:03;0.00;36.90
1025;DHT22;501;48.214;11.350;2023-02-28T09:13:29;0.00;36.20
1025;DHT22;501;48.214;11.350;2023-02-28T09:15:57;0.10;36.30
1025;DHT22;501;48.214;11.350;2023-02-28T09:18:23;0.00;36.20
1025;DHT22;501;48.214;11.350;2023-02-28T09:20:49;0.00;36.60
1025;DHT22;501;48.214;11.350;2023-02-28T09:23:15;0.10;36.00
1025;DHT22;501;48.214;11.350;2023-02-28T09:25:49;0.00;36.30
1025;DHT22;501;48.214;11.350;2023-02-28T09:28:16;0.10;37.00
1025;DHT22;501;48.214;11.350;2023-02-28T09:30:44;0.10;36.60
1025;DHT22;501;48.214;11.350;2023-02-28T09:33:10;0.20;36.00
1025;DHT22;501;48.214;11.350;2023-02-28T09:35:36;0.20;35.90
1025;DHT22;501;48.214;11.350;2023-02-28T09:38:02;0.20;35.70
1025;DHT22;501;48.214;11.350;2023-02-28T09:40:28;0.20;35.70
1025;DHT22;501;48.214;11.350;2023-02-28T09:42:55;0.20;36.10
1025;DHT22;501;48.214;11.350;2023-02-28T09:45:37;0.30;36.00
1025;DHT22;501;48.214;11.350;2023-02-28T09:48:17;0.30;35.30
1025;DHT22;501;48.214;11.350;2023-02-28T09:50:55;0.20;35.10
1025;DHT22;501;48.214;11.350;2023-02-28T09:53:29;0.30;35.20
1025;DHT22;501;48.214;11.350;2023-02-28T09:56:04;0.30;35.80
1025;DHT22;501;48.214;11.350;2023-02-28T09:58:38;0.40;35.60
1025;DHT22;501;48.214;11.350;2023-02-28T10:01:17;0.50;35.20
1025;DHT22;501;48.214;11.350;2023-02-28T10:03:56;0.60;35.20
1025;DHT22;501;48.214;11.350;2023-02-28T10:06:28;0.70;34.30
1025;DHT22;501;48.214;11.350;2023-02-28T10:09:02;0.70;34.70
1025;DHT22;501;48.214;11.350;2023-02-28T10:11:30;0.80;34.70
1025;DHT22;501;48.214;11.350;2023-02-28T10:14:05;0.80;33.90
1025;DHT22;501;48.214;11.350;2023-02-28T10:19:23;1.00;35.30
1025;DHT22;501;48.214;11.350;2023-02-28T10:21:57;1.20;34.00
1025;DHT22;501;48.214;11.350;2023-02-28T10:24:35;1.30;34.40
1025;DHT22;501;48.214;11.350;2023-02-28T10:27:24;1.30;33.80
1025;DHT22;501;48.214;11.350;2023-02-28T10:29:53;1.50;33.90
1025;DHT22;501;48.214;11.350;2023-02-28T10:32:24;1.60;33.40
1025;DHT22;501;48.214;11.350;2023-02-28T10:34:54;1.60;33.30
1025;DHT22;501;48.214;11.350;2023-02-28T10:37:22;1.70;33.70
1025;DHT22;501;48.214;11.350;2023-02-28T10:39:47;1.70;32.30
1025;DHT22;501;48.214;11.350;2023-02-28T10:42:25;1.70;32.40
1025;DHT22;501;48.214;11.350;2023-02-28T10:45:14;1.80;32.60
1025;DHT22;501;48.214;11.350;2023-02-28T10:47:52;1.80;32.90
1025;DHT22;501;48.214;11.350;2023-02-28T10:56:05;2.10;32.60
1025;DHT22;501;48.214;11.350;2023-02-28T11:01:25;2.30;31.60
1025;DHT22;501;48.214;11.350;2023-02-28T11:03:59;2.30;31.80
1025;DHT22;501;48.214;11.350;2023-02-28T11:06:33;2.30;31.30
1025;DHT22;501;48.214;11.350;2023-02-28T11:09:06;2.40;32.90
1025;DHT22;501;48.214;11.350;2023-02-28T11:11:44;2.40;31.10
1025;DHT22;501;48.214;11.350;2023-02-28T11:14:32;2.50;31.30
1025;DHT22;501;48.214;11.350;2023-02-28T11:17:11;2.50;31.10
1025;DHT22;501;48.214;11.350;2023-02-28T11:19:45;2.60;31.10
1025;DHT22;501;48.214;11.350;2023-02-28T11:22:20;2.70;31.30
1025;DHT22;501;48.214;11.350;2023-02-28T11:24:50;2.70;31.10
1025;DHT22;501;48.214;11.350;2023-02-28T11:30:00;3.00;30.90
1025;DHT22;501;48.214;11.350;2023-02-28T11:32:28;3.10;30.20
1025;DHT22;501;48.214;11.350;2023-02-28T11:37:28;3.30;30.00
1025;DHT22;501;48.214;11.350;2023-02-28T11:39:54;3.30;29.50
1025;DHT22;501;48.214;11.350;2023-02-28T11:47:54;3.30;29.60
1025;DHT22;501;48.214;11.350;2023-02-28T11:50:47;3.30;29.60
1025;DHT22;501;48.214;11.350;2023-02-28T11:53:35;3.30;29.60
1025;DHT22;501;48.214;11.350;2023-02-28T11:56:33;3.40;30.00
1025;DHT22;501;48.214;11.350;2023-02-28T12:02:06;3.50;29.30
1025;DHT22;501;48.214;11.350;2023-02-28T12:10:20;3.60;29.50
1025;DHT22;501;48.214;11.350;2023-02-28T12:12:56;3.60;29.10
1025;DHT22;501;48.214;11.350;2023-02-28T12:25:01;3.60;28.90
1025;DHT22;501;48.214;11.350;2023-02-28T12:27:29;3.60;29.20
1025;DHT22;501;48.214;11.350;2023-02-28T12:30:16;3.70;29.40
1025;DHT22;501;48.214;11.350;2023-02-28T12:32:50;3.70;29.30
1025;DHT22;501;48.214;11.350;2023-02-28T12:35:23;3.70;29.40
1025;DHT22;501;48.214;11.350;2023-02-28T12:37:57;3.70;29.20
1025;DHT22;501;48.214;11.350;2023-02-28T12:40:40;3.80;29.40
1025;DHT22;501;48.214;11.350;2023-02-28T12:43:09;3.70;29.10
1025;DHT22;501;48.214;11.350;2023-02-28T12:45:45;3.60;29.10
1025;DHT22;501;48.214;11.350;2023-02-28T12:48:20;3.50;29.00
1025;DHT22;501;48.214;11.350;2023-02-28T12:50:48;3.50;29.20
1025;DHT22;501;48.214;11.350;2023-02-28T12:53:24;3.50;29.50
1025;DHT22;501;48.214;11.350;2023-02-28T12:59:34;3.70;28.70
1025;DHT22;501;48.214;11.350;2023-02-28T13:02:14;3.80;29.40
1025;DHT22;501;48.214;11.350;2023-02-28T13:10:10;4.70;28.50
1025;DHT22;501;48.214;11.350;2023-02-28T13:12:36;4.90;27.90
1025;DHT22;501;48.214;11.350;2023-02-28T13:15:20;5.20;28.20
1025;DHT22;501;48.214;11.350;2023-02-28T13:17:58;5.70;28.90
1025;DHT22;501;48.214;11.350;2023-02-28T13:20:32;6.30;27.70
1025;DHT22;501;48.214;11.350;2023-02-28T13:22:59;6.90;27.60
1025;DHT22;501;48.214;11.350;2023-02-28T13:31:15;8.50;24.20
1025;DHT22;501;48.214;11.350;2023-02-28T13:38:51;9.20;22.40
1025;DHT22;501;48.214;11.350;2023-02-28T13:46:28;10.00;21.70
1025;DHT22;501;48.214;11.350;2023-02-28T13:48:54;10.30;21.80
1025;DHT22;501;48.214;11.350;2023-02-28T13:51:42;10.70;20.60
1025;DHT22;501;48.214;11.350;2023-02-28T14:05:38;12.10;17.60
1025;DHT22;501;48.214;11.350;2023-02-28T14:08:15;12.10;17.70
1025;DHT22;501;48.214;11.350;2023-02-28T14:10:51;12.20;16.70
1025;DHT22;501;48.214;11.350;2023-02-28T14:13:45;12.30;17.80
1025;DHT22;501;48.214;11.350;2023-02-28T14:16:20;12.50;18.00
1025;DHT22;501;48.214;11.350;2023-02-28T14:19:02;12.60;17.10
1025;DHT22;501;48.214;11.350;2023-02-28T14:21:33;12.70;16.40
1025;DHT22;501;48.214;11.350;2023-02-28T14:37:50;12.80;15.60
1025;DHT22;501;48.214;11.350;2023-02-28T14:42:58;12.30;15.50
1025;DHT22;501;48.214;11.350;2023-02-28T14:45:29;12.00;16.10
1025;DHT22;501;48.214;11.350;2023-02-28T14:47:56;11.70;15.90
1025;DHT22;501;48.214;11.350;2023-02-28T14:50:31;11.40;16.10
1025;DHT22;501;48.214;11.350;2023-02-28T14:52:57;11.10;17.00
1025;DHT22;501;48.214;11.350;2023-02-28T14:55:28;11.10;17.00
1025;DHT22;501;48.214;11.350;2023-02-28T14:57:59;11.10;17.00
1025;DHT22;501;48.214;11.350;2023-02-28T15:00:34;11.00;16.90
1025;DHT22;501;48.214;11.350;2023-02-28T15:03:11;10.80;16.80
1025;DHT22;501;48.214;11.350;2023-02-28T15:05:42;10.70;16.90
1025;DHT22;501;48.214;11.350;2023-02-28T15:08:16;10.60;17.10
1025;DHT22;501;48.214;11.350;2023-02-28T15:11:12;10.50;17.20
1025;DHT22;501;48.214;11.350;2023-02-28T15:13:43;10.40;17.30
1025;DHT22;501;48.214;11.350;2023-02-28T15:16:40;10.10;17.30
1025;DHT22;501;48.214;11.350;2023-02-28T15:19:23;9.90;18.60
1025;DHT22;501;48.214;11.350;2023-02-28T15:22:02;9.80;19.20
1025;DHT22;501;48.214;11.350;2023-02-28T15:26:58;9.60;19.40
1025;DHT22;501;48.214;11.350;2023-02-28T15:29:27;9.50;19.50
1025;DHT22;501;48.214;11.350;2023-02-28T15:31:58;9.30;19.70
1025;DHT22;501;48.214;11.350;2023-02-28T15:34:44;9.20;20.00
1025;DHT22;501;48.214;11.350;2023-02-28T15:39:57;8.40;20.60
1025;DHT22;501;48.214;11.350;2023-02-28T15:42:28;7.90;21.20
1025;DHT22;501;48.214;11.350;2023-02-28T15:44:54;7.50;21.70
1025;DHT22;501;48.214;11.350;2023-02-28T15:47:22;7.30;22.20
1025;DHT22;501;48.214;11.350;2023-02-28T15:49:54;7.00;22.50
1025;DHT22;501;48.214;11.350;2023-02-28T15:52:27;6.80;22.70
1025;DHT22;501;48.214;11.350;2023-02-28T15:54:53;6.50;22.90
1025;DHT22;501;48.214;11.350;2023-02-28T15:57:25;6.30;23.50
1025;DHT22;501;48.214;11.350;2023-02-28T16:00:00;6.00;23.90
1025;DHT22;501;48.214;11.350;2023-02-28T16:02:33;5.80;24.40
1025;DHT22;501;48.214;11.350;2023-02-28T16:07:25;5.40;24.90
1025;DHT22;501;48.214;11.350;2023-02-28T16:09:51;5.30;25.40
1025;DHT22;501;48.214;11.350;2023-02-28T16:12:17;5.20;25.60
1025;DHT22;501;48.214;11.350;2023-02-28T16:14:43;5.10;25.70
1025;DHT22;501;48.214;11.350;2023-02-28T16:17:22;5.00;26.20
1025;DHT22;501;48.214;11.350;2023-02-28T16:19:48;4.80;26.20
1025;DHT22;501;48.214;11.350;2023-02-28T16:22:14;4.70;26.50
1025;DHT22;501;48.214;11.350;2023-02-28T16:24:39;4.60;26.80
1025;DHT22;501;48.214;11.350;2023-02-28T16:27:05;4.50;27.00
1025;DHT22;501;48.214;11.350;2023-02-28T16:29:34;4.40;27.10
1025;DHT22;501;48.214;11.350;2023-02-28T16:32:04;4.30;27.40
1025;DHT22;501;48.214;11.350;2023-02-28T16:34:30;4.20;27.60
1025;DHT22;501;48.214;11.350;2023-02-28T16:36:56;4.20;27.90
1025;DHT22;501;48.214;11.350;2023-02-28T16:39:22;4.10;27.80
1025;DHT22;501;48.214;11.350;2023-02-28T16:41:49;4.00;27.70
1025;DHT22;501;48.214;11.350;2023-02-28T16:44:32;4.00;28.00
1025;DHT22;501;48.214;11.350;2023-02-28T16:47:02;3.90;28.10
1025;DHT22;501;48.214;11.350;2023-02-28T16:49:29;3.90;28.30
1025;DHT22;501;48.214;11.350;2023-02-28T16:51:55;3.80;28.30
1025;DHT22;501;48.214;11.350;2023-02-28T16:54:20;3.80;28.40
1025;DHT22;501;48.214;11.350;2023-02-28T16:56:47;3.80;28.50
1025;DHT22;501;48.214;11.350;2023-02-28T16:59:19;3.70;28.50
1025;DHT22;501;48.214;11.350;2023-02-28T17:01:46;3.70;28.70
1025;DHT22;501;48.214;11.350;2023-02-28T17:04:12;3.70;28.70
1025;DHT22;501;48.214;11.350;2023-02-28T17:06:39;3.60;28.70
1025;DHT22;501;48.214;11.350;2023-02-28T17:09:05;3.50;28.70
1025;DHT22;501;48.214;11.350;2023-02-28T17:11:34;3.50;29.10
1025;DHT22;501;48.214;11.350;2023-02-28T17:13:59;3.50;29.10
1025;DHT22;501;48.214;11.350;2023-02-28T17:16:33;3.40;29.40
1025;DHT22;501;48.214;11.350;2023-02-28T17:19:03;3.30;29.60
1025;DHT22;501;48.214;11.350;2023-02-28T17:21:30;3.30;29.90
1025;DHT22;501;48.214;11.350;2023-02-28T17:23:57;3.20;30.00
1025;DHT22;501;48.214;11.350;2023-02-28T17:26:23;3.10;30.00
1025;DHT22;501;48.214;11.350;2023-02-28T17:28:54;3.10;30.00
1025;DHT22;501;48.214;11.350;2023-02-28T17:31:21;3.10;30.00
1025;DHT22;501;48.214;11.350;2023-02-28T17:33:47;3.00;30.20
1025;DHT22;501;48.214;11.350;2023-02-28T17:36:15;3.00;30.00
1025;DHT22;501;48.214;11.350;2023-02-28T17:38:41;3.00;30.30
1025;DHT22;501;48.214;11.350;2023-02-28T17:41:09;2.90;30.30
1025;DHT22;501;48.214;11.350;2023-02-28T17:43:35;2.90;30.20
1025;DHT22;501;48.214;11.350;2023-02-28T17:46:00;2.80;30.50
1025;DHT22;501;48.214;11.350;2023-02-28T17:48:26;2.80;30.60
1025;DHT22;501;48.214;11.350;2023-02-28T17:50:54;2.80;30.70
1025;DHT22;501;48.214;11.350;2023-02-28T17:53:19;2.70;31.00
1025;DHT22;501;48.214;11.350;2023-02-28T17:55:49;2.70;31.10
1025;DHT22;501;48.214;11.350;2023-02-28T17:58:14;2.60;31.20
1025;DHT22;501;48.214;11.350;2023-02-28T18:00:40;2.60;32.00
1025;DHT22;501;48.214;11.350;2023-02-28T18:03:06;2.60;32.20
1025;DHT22;501;48.214;11.350;2023-02-28T18:05:32;2.60;32.70
1025;DHT22;501;48.214;11.350;2023-02-28T18:07:58;2.60;33.00
1025;DHT22;501;48.214;11.350;2023-02-28T18:10:24;2.60;33.00
1025;DHT22;501;48.214;11.350;2023-02-28T18:12:51;2.60;33.30
1025;DHT22;501;48.214;11.350;2023-02-28T18:15:19;2.60;33.40
1025;DHT22;501;48.214;11.350;2023-02-28T18:17:48;2.60;33.40
1025;DHT22;501;48.214;11.350;2023-02-28T18:20:14;2.60;33.40
1025;DHT22;501;48.214;11.350;2023-02-28T18:22:41;2.60;33.50
1025;DHT22;501;48.214;11.350;2023-02-28T18:25:08;2.60;33.40
1025;DHT22;501;48.214;11.350;2023-02-28T18:27:36;2.60;33.70
1025;DHT22;501;48.214;11.350;2023-02-28T18:30:02;2.60;34.10
1025;DHT22;501;48.214;11.350;2023-02-28T18:32:29;2.60;33.90